Time;durP1;ratioP1;P1;durP2;ratioP2;P2;SDS_P1;SDS_P2;PMS_P1;PMS_P2;Temp;Humidity;BMP_temperature;BMP_pressure;BME280_temperature;BME280_humidity;BME280_pressure;Samples;Min_cycle;Max_cycle;Signal;HPM_P1;HPM_P2
2022/05/12 00:00:16;;;;;;;15.63;4.13;;;;;;;;;;5071819;28;20285;-70
2022/05/12 00:02:44;;;;;;;15.80;4.73;;;;;;;;;;5071756;28;20972;-70
2022/05/12 00:05:12;;;;;;;18.87;4.00;;;;;;;;;;5071415;28;20975;-70
2022/05/12 00:07:39;;;;;;;18.03;4.60;;;;;;;;;;5071517;28;20468;-70
2022/05/12 00:10:09;;;;;;;17.38;4.15;;;;;;;;;;5071945;28;20439;-70
2022/05/12 00:12:36;;;;;;;15.20;3.93;;;;;;;;;;5071591;28;20202;-70
2022/05/12 00:15:05;;;;;;;15.82;3.65;;;;;;;;;;5071576;28;21072;-70
2022/05/12 00:17:32;;;;;;;15.47;4.07;;;;;;;;;;5071328;28;20264;-70
2022/05/12 00:20:00;;;;;;;15.85;4.20;;;;;;;;;;5071423;28;20456;-70
2022/05/12 00:22:28;;;;;;;18.38;4.22;;;;;;;;;;5071432;28;20667;-70
2022/05/12 00:24:55;;;;;;;15.83;5.03;;;;;;;;;;5071615;28;20588;-70
2022/05/12 00:27:24;;;;;;;14.93;4.40;;;;;;;;;;5071433;28;20444;-70
2022/05/12 00:29:52;;;;;;;16.30;3.92;;;;;;;;;;5071603;28;20202;-70
2022/05/12 00:32:19;;;;;;;15.98;4.20;;;;;;;;;;5071401;28;20204;-70
2022/05/12 00:34:48;;;;;;;19.20;4.20;;;;;;;;;;5071293;28;20585;-70
2022/05/12 00:37:15;;;;;;;15.45;3.88;;;;;;;;;;5071371;28;20472;-70
2022/05/12 00:39:43;;;;;;;22.35;4.45;;;;;;;;;;5071345;28;20197;-70
2022/05/12 00:42:10;;;;;;;14.77;3.90;;;;;;;;;;5071375;28;20663;-70
2022/05/12 00:44:39;;;;;;;16.60;3.90;;;;;;;;;;5071439;28;20577;-70
2022/05/12 00:47:06;;;;;;;14.32;3.30;;;;;;;;;;5071186;28;20450;-70
2022/05/12 00:49:37;;;;;;;16.40;4.40;;;;;;;;;;5071243;28;20207;-70
2022/05/12 00:52:06;;;;;;;15.83;4.20;;;;;;;;;;5071261;28;20199;-70
2022/05/12 00:54:37;;;;;;;16.50;4.55;;;;;;;;;;5071177;28;20975;-70
2022/05/12 00:57:06;;;;;;;15.10;4.70;;;;;;;;;;5071491;28;20225;-70
2022/05/12 00:59:35;;;;;;;17.83;4.88;;;;;;;;;;5070959;28;20206;-69
2022/05/12 01:02:05;;;;;;;16.92;4.72;;;;;;;;;;5074838;28;20202;-70
2022/05/12 01:04:33;;;;;;;18.70;4.20;;;;;;;;;;5075190;28;20205;-70
2022/05/12 01:07:01;;;;;;;16.50;4.25;;;;;;;;;;5074987;28;20224;-70
2022/05/12 01:09:29;;;;;;;17.02;4.53;;;;;;;;;;5074722;28;20202;-69
2022/05/12 01:11:57;;;;;;;18.27;4.75;;;;;;;;;;5074797;28;20203;-70
2022/05/12 01:14:25;;;;;;;16.35;4.53;;;;;;;;;;5074565;28;20287;-70
2022/05/12 01:16:54;;;;;;;18.23;3.95;;;;;;;;;;5074732;28;20243;-70
2022/05/12 01:19:24;;;;;;;14.15;3.75;;;;;;;;;;5074319;28;20193;-70
2022/05/12 01:21:52;;;;;;;16.13;4.35;;;;;;;;;;5075733;28;20215;-70
2022/05/12 01:24:22;;;;;;;19.42;4.35;;;;;;;;;;5074598;28;20233;-70
2022/05/12 01:26:50;;;;;;;21.13;4.07;;;;;;;;;;5074331;28;20212;-70
2022/05/12 01:29:18;;;;;;;15.90;4.10;;;;;;;;;;5074371;28;20585;-69
2022/05/12 01:31:46;;;;;;;14.73;3.90;;;;;;;;;;5074972;28;20196;-69
2022/05/12 01:34:14;;;;;;;15.57;4.10;;;;;;;;;;5074240;28;20193;-70
2022/05/12 01:36:42;;;;;;;18.40;4.90;;;;;;;;;;5074542;28;20235;-70
2022/05/12 01:39:10;;;;;;;15.35;4.15;;;;;;;;;;5074400;28;20201;-70
2022/05/12 01:41:39;;;;;;;15.55;4.25;;;;;;;;;;5074335;28;20203;-70
2022/05/12 01:44:07;;;;;;;15.70;4.30;;;;;;;;;;5074414;28;20579;-70
2022/05/12 01:46:34;;;;;;;17.33;4.30;;;;;;;;;;5074226;28;20199;-69
2022/05/12 01:49:02;;;;;;;15.25;4.70;;;;;;;;;;5074206;28;20303;-70
2022/05/12 01:51:29;;;;;;;22.25;5.43;;;;;;;;;;5073758;28;21254;-70
2022/05/12 01:53:57;;;;;;;23.58;4.78;;;;;;;;;;5073991;28;20209;-70
2022/05/12 01:56:24;;;;;;;14.57;3.97;;;;;;;;;;5074120;28;20634;-70
2022/05/12 01:58:53;;;;;;;15.73;4.78;;;;;;;;;;5074099;28;20219;-69
2022/05/12 02:01:21;;;;;;;16.48;4.10;;;;;;;;;;5073715;28;20274;-70
2022/05/12 02:03:48;;;;;;;17.92;3.90;;;;;;;;;;5073700;28;20705;-70
2022/05/12 02:06:16;;;;;;;23.80;5.43;;;;;;;;;;5073692;28;20193;-69
2022/05/12 02:08:43;;;;;;;14.80;4.63;;;;;;;;;;5073524;28;20217;-70
2022/05/12 02:11:11;;;;;;;17.30;4.57;;;;;;;;;;5072830;28;20683;-70
2022/05/12 02:13:38;;;;;;;14.88;4.28;;;;;;;;;;5073205;28;20196;-69
2022/05/12 02:16:07;;;;;;;15.70;4.40;;;;;;;;;;5073744;28;20211;-70
2022/05/12 02:18:35;;;;;;;16.40;4.63;;;;;;;;;;5073440;28;20314;-69
2022/05/12 02:21:03;;;;;;;17.73;4.88;;;;;;;;;;5073289;28;20203;-70
2022/05/12 02:23:30;;;;;;;15.43;4.45;;;;;;;;;;5073075;28;20726;-70
2022/05/12 02:25:57;;;;;;;15.50;4.57;;;;;;;;;;5073338;28;20668;-70
2022/05/12 02:28:25;;;;;;;16.40;4.53;;;;;;;;;;5073293;28;20657;-69
2022/05/12 02:30:52;;;;;;;17.92;4.20;;;;;;;;;;5073384;28;20208;-69
2022/05/12 02:33:22;;;;;;;16.60;5.05;;;;;;;;;;5072905;28;20664;-70
2022/05/12 02:35:50;;;;;;;16.27;4.30;;;;;;;;;;5073113;28;20194;-70
2022/05/12 02:38:17;;;;;;;15.15;4.65;;;;;;;;;;5073150;28;20226;-70
2022/05/12 02:40:45;;;;;;;15.23;4.90;;;;;;;;;;5073275;28;20205;-70
2022/05/12 02:43:24;;;;;;;16.70;4.70;;;;;;;;;;5072758;28;20197;-70
2022/05/12 02:45:52;;;;;;;17.08;4.90;;;;;;;;;;5072829;28;20717;-69
2022/05/12 02:48:20;;;;;;;15.50;4.60;;;;;;;;;;5072859;28;20204;-70
2022/05/12 02:50:49;;;;;;;17.88;4.15;;;;;;;;;;5072904;28;20200;-70
2022/05/12 02:53:17;;;;;;;16.80;4.80;;;;;;;;;;5072743;28;20201;-70
2022/05/12 02:55:45;;;;;;;15.65;3.72;;;;;;;;;;5072849;28;20203;-69
2022/05/12 02:58:12;;;;;;;15.18;4.35;;;;;;;;;;5072571;28;20616;-70
2022/05/12 03:00:40;;;;;;;16.75;4.60;;;;;;;;;;5072594;28;20201;-70
2022/05/12 03:03:07;;;;;;;19.75;5.88;;;;;;;;;;5072863;28;20238;-70
2022/05/12 03:05:35;;;;;;;18.27;4.65;;;;;;;;;;5072573;28;20207;-69
2022/05/12 03:08:05;;;;;;;18.60;5.65;;;;;;;;;;5072499;28;20220;-70
2022/05/12 03:10:33;;;;;;;16.27;5.68;;;;;;;;;;5072370;28;20197;-69
2022/05/12 03:13:01;;;;;;;18.35;5.63;;;;;;;;;;5072249;28;20204;-69
2022/05/12 03:15:28;;;;;;;21.83;5.40;;;;;;;;;;5072326;28;20194;-70
2022/05/12 03:17:56;;;;;;;17.42;5.65;;;;;;;;;;5072828;28;20220;-70
2022/05/12 03:20:24;;;;;;;17.85;5.57;;;;;;;;;;5072259;28;20663;-70
2022/05/12 03:22:52;;;;;;;15.95;5.30;;;;;;;;;;5071956;28;20197;-70
2022/05/12 03:25:22;;;;;;;16.95;5.47;;;;;;;;;;5072042;28;20239;-70
2022/05/12 03:27:49;;;;;;;18.45;4.97;;;;;;;;;;5072588;28;20204;-70
2022/05/12 03:30:18;;;;;;;17.08;5.47;;;;;;;;;;5072364;28;20248;-70
2022/05/12 03:32:46;;;;;;;17.50;5.83;;;;;;;;;;5072059;28;20198;-70
2022/05/12 03:35:13;;;;;;;15.77;4.87;;;;;;;;;;5071953;28;20449;-70
2022/05/12 03:37:42;;;;;;;15.00;4.43;;;;;;;;;;5071847;28;20480;-70
2022/05/12 03:40:09;;;;;;;15.23;4.60;;;;;;;;;;5072025;28;20452;-70
2022/05/12 03:42:39;;;;;;;16.20;5.03;;;;;;;;;;5072267;28;20445;-70
2022/05/12 03:45:06;;;;;;;19.23;5.50;;;;;;;;;;5072084;28;20449;-70
2022/05/12 03:47:35;;;;;;;16.20;4.60;;;;;;;;;;5071941;28;20438;-70
2022/05/12 03:50:04;;;;;;;15.70;4.83;;;;;;;;;;5071867;28;20451;-70
2022/05/12 03:52:32;;;;;;;16.40;4.83;;;;;;;;;;5071956;28;20438;-70
2022/05/12 03:54:59;;;;;;;17.10;4.40;;;;;;;;;;5071685;28;20447;-70
2022/05/12 03:57:27;;;;;;;18.27;4.50;;;;;;;;;;5071685;28;20479;-70
2022/05/12 03:59:56;;;;;;;18.97;4.57;;;;;;;;;;5071767;28;20443;-70
2022/05/12 04:02:24;;;;;;;16.67;4.43;;;;;;;;;;5071784;28;20527;-70
2022/05/12 04:04:52;;;;;;;15.53;3.90;;;;;;;;;;5071738;28;20485;-70
2022/05/12 04:07:20;;;;;;;14.53;3.57;;;;;;;;;;5071390;28;20831;-70
2022/05/12 04:09:48;;;;;;;17.00;4.47;;;;;;;;;;5071602;28;20455;-70
2022/05/12 04:12:15;;;;;;;18.67;3.77;;;;;;;;;;5071540;28;20947;-70
2022/05/12 04:14:43;;;;;;;18.57;5.07;;;;;;;;;;5071544;28;20448;-70
2022/05/12 04:17:15;;;;;;;18.07;5.50;;;;;;;;;;5071261;28;20485;-71
2022/05/12 04:19:43;;;;;;;19.60;6.60;;;;;;;;;;5071735;28;20442;-70
2022/05/12 04:22:10;;;;;;;20.90;6.50;;;;;;;;;;5071483;28;20976;-70
2022/05/12 04:24:38;;;;;;;23.00;6.60;;;;;;;;;;5071377;28;20479;-70
2022/05/12 04:27:06;;;;;;;17.50;5.23;;;;;;;;;;5071620;28;20438;-70
2022/05/12 04:29:36;;;;;;;15.63;4.43;;;;;;;;;;5071265;28;20435;-70
2022/05/12 04:32:04;;;;;;;19.03;6.30;;;;;;;;;;5071607;28;20439;-70
2022/05/12 04:37:18;;;;;;;15.00;4.30;;;;;;;;;;5075314;28;20855;-71
2022/05/12 04:39:46;;;;;;;17.40;4.50;;;;;;;;;;5075527;28;20543;-71
2022/05/12 04:42:13;;;;;;;16.50;4.40;;;;;;;;;;5075296;28;20445;-70
2022/05/12 04:44:40;;;;;;;17.27;3.70;;;;;;;;;;5075295;28;20434;-71
2022/05/12 04:47:08;;;;;;;14.63;4.00;;;;;;;;;;5075209;28;20435;-71
2022/05/12 04:49:38;;;;;;;16.90;3.97;;;;;;;;;;5075154;28;20851;-71
2022/05/12 04:52:06;;;;;;;17.03;4.50;;;;;;;;;;5075250;28;20444;-71
2022/05/12 04:54:33;;;;;;;16.47;5.03;;;;;;;;;;5075570;28;20442;-71
2022/05/12 04:57:01;;;;;;;14.37;3.43;;;;;;;;;;5074953;28;20454;-71
2022/05/12 04:59:28;;;;;;;16.70;4.40;;;;;;;;;;5074650;28;20451;-71
2022/05/12 05:01:55;;;;;;;15.30;4.40;;;;;;;;;;5074947;28;20952;-71
2022/05/12 05:04:23;;;;;;;15.17;4.33;;;;;;;;;;5074953;28;20465;-71
2022/05/12 05:06:52;;;;;;;19.07;3.77;;;;;;;;;;5075072;28;20434;-71
2022/05/12 05:09:19;;;;;;;14.17;3.20;;;;;;;;;;5074723;28;20446;-71
2022/05/12 05:11:46;;;;;;;22.87;4.60;;;;;;;;;;5074642;28;20449;-71
2022/05/12 05:14:14;;;;;;;23.30;7.40;;;;;;;;;;5075007;28;20466;-71
2022/05/12 05:16:41;;;;;;;15.40;4.07;;;;;;;;;;5075043;28;20431;-71
2022/05/12 05:19:09;;;;;;;16.97;4.70;;;;;;;;;;5074588;28;20486;-71
2022/05/12 05:21:36;;;;;;;14.40;3.97;;;;;;;;;;5074665;28;20431;-71
2022/05/12 05:24:05;;;;;;;17.27;4.77;;;;;;;;;;5074649;28;20561;-70
2022/05/12 05:26:32;;;;;;;16.13;4.10;;;;;;;;;;5074526;28;20434;-71
2022/05/12 05:29:01;;;;;;;14.60;4.13;;;;;;;;;;5074530;28;20441;-70
2022/05/12 05:31:28;;;;;;;17.50;4.13;;;;;;;;;;5074328;28;20812;-71
2022/05/12 05:33:55;;;;;;;16.60;4.60;;;;;;;;;;5074434;28;20431;-71
2022/05/12 05:36:23;;;;;;;15.47;4.30;;;;;;;;;;5074250;28;20443;-71
2022/05/12 05:38:50;;;;;;;16.10;4.33;;;;;;;;;;5074050;28;20478;-71
2022/05/12 05:41:19;;;;;;;14.50;3.33;;;;;;;;;;5073929;28;20442;-71
2022/05/12 05:43:48;;;;;;;16.33;4.83;;;;;;;;;;5074665;28;20449;-71
2022/05/12 05:46:16;;;;;;;17.80;3.77;;;;;;;;;;5074458;28;20898;-71
2022/05/12 05:48:46;;;;;;;16.23;4.20;;;;;;;;;;5074101;28;20861;-71
2022/05/12 05:53:58;;;;;;;16.23;3.70;;;;;;;;;;5074147;28;20427;-71
2022/05/12 05:56:27;;;;;;;14.50;3.23;;;;;;;;;;5073988;28;20445;-71
2022/05/12 05:58:54;;;;;;;14.43;3.13;;;;;;;;;;5073754;28;20482;-71
2022/05/12 06:01:22;;;;;;;14.10;3.37;;;;;;;;;;5073591;28;20442;-72
2022/05/12 06:03:49;;;;;;;16.00;3.73;;;;;;;;;;5073705;28;20443;-71
2022/05/12 06:06:17;;;;;;;14.60;3.70;;;;;;;;;;5074374;28;20522;-71
2022/05/12 06:08:46;;;;;;;14.00;3.30;;;;;;;;;;5073694;28;20463;-71
2022/05/12 06:11:14;;;;;;;15.47;4.23;;;;;;;;;;5073399;28;20435;-72
2022/05/12 06:13:47;;;;;;;16.47;3.53;;;;;;;;;;5073662;28;20480;-71
2022/05/12 06:16:15;;;;;;;14.67;3.90;;;;;;;;;;5073693;28;20485;-71
2022/05/12 06:18:43;;;;;;;14.97;3.60;;;;;;;;;;5073646;28;20474;-72
2022/05/12 06:21:12;;;;;;;16.50;3.47;;;;;;;;;;5073265;28;20450;-72
2022/05/12 06:23:39;;;;;;;14.00;3.43;;;;;;;;;;5073551;28;20478;-71
2022/05/12 06:26:13;;;;;;;18.40;3.73;;;;;;;;;;5073313;28;20940;-71
2022/05/12 06:28:42;;;;;;;16.33;3.40;;;;;;;;;;5073248;28;20442;-72
2022/05/12 06:31:12;;;;;;;13.90;3.40;;;;;;;;;;5073122;28;21017;-73
2022/05/12 06:33:41;;;;;;;18.47;3.70;;;;;;;;;;5073527;28;20442;-71
2022/05/12 06:36:08;;;;;;;16.13;3.60;;;;;;;;;;5073231;28;20465;-72
2022/05/12 06:38:38;;;;;;;14.70;3.70;;;;;;;;;;5073013;28;20486;-71
2022/05/12 06:41:06;;;;;;;16.77;3.80;;;;;;;;;;5073150;28;20438;-71
2022/05/12 06:43:34;;;;;;;16.87;3.43;;;;;;;;;;5072854;28;20442;-71
2022/05/12 06:46:02;;;;;;;15.10;3.57;;;;;;;;;;5072856;28;20449;-71
2022/05/12 06:48:32;;;;;;;16.07;3.70;;;;;;;;;;5072842;28;20963;-72
2022/05/12 06:50:59;;;;;;;18.50;4.17;;;;;;;;;;5072810;28;20471;-71
2022/05/12 09:37:50;;;;;;;15.93;2.87;;;;;;;;;;5113565;27;20575;-70
2022/05/12 09:40:23;;;;;;;17.07;3.63;;;;;;;;;;5109552;28;20528;-73
2022/05/12 09:42:51;;;;;;;15.77;3.50;;;;;;;;;;5109185;28;20499;-73
2022/05/12 09:45:27;;;;;;;13.33;3.00;;;;;;;;;;5109154;28;20497;-73
2022/05/12 09:48:13;;;;;;;13.60;3.17;;;;;;;;;;5109185;28;20448;-73
2022/05/12 09:50:41;;;;;;;35.50;6.77;;;;;;;;;;5109358;28;20457;-73
2022/05/12 09:53:12;;;;;;;22.77;3.57;;;;;;;;;;5109140;28;20526;-73
2022/05/12 09:55:40;;;;;;;17.17;2.73;;;;;;;;;;5109146;28;20487;-73
2022/05/12 09:58:25;;;;;;;14.33;3.50;;;;;;;;;;5109023;28;20476;-73
2022/05/12 10:01:07;;;;;;;13.20;3.07;;;;;;;;;;5109106;28;20448;-73
2022/05/12 10:09:10;;;;;;;14.67;2.63;;;;;;;;;;5062127;28;20441;-73
2022/05/12 10:11:42;;;;;;;19.67;3.23;;;;;;;;;;5108528;28;20445;-73
2022/05/12 10:14:15;;;;;;;14.47;2.90;;;;;;;;;;5108719;28;20460;-73
2022/05/12 10:16:44;;;;;;;15.03;2.60;;;;;;;;;;5102796;28;20539;-73
2022/05/12 10:19:22;;;;;;;16.47;3.03;;;;;;;;;;5102069;28;20459;-73
2022/05/12 10:21:50;;;;;;;14.07;2.73;;;;;;;;;;5102999;28;20471;-73
2022/05/12 10:24:25;;;;;;;16.13;2.30;;;;;;;;;;5101996;28;20475;-73
2022/05/12 10:26:56;;;;;;;15.63;2.67;;;;;;;;;;5101821;28;20485;-73
2022/05/12 10:29:27;;;;;;;13.90;3.00;;;;;;;;;;5101798;28;20449;-73
2022/05/12 10:31:58;;;;;;;13.10;2.60;;;;;;;;;;5108420;28;20949;-73
2022/05/12 10:34:35;;;;;;;16.90;3.20;;;;;;;;;;5108527;28;20444;-73
2022/05/12 10:37:06;;;;;;;16.63;3.00;;;;;;;;;;5097548;28;20481;-73
2022/05/12 10:39:40;;;;;;;12.80;2.47;;;;;;;;;;5094444;28;20537;-73
2022/05/12 10:42:18;;;;;;;13.13;2.67;;;;;;;;;;5094714;28;20449;-73
2022/05/12 10:44:55;;;;;;;14.57;3.03;;;;;;;;;;5094701;28;20445;-73
2022/05/12 10:47:27;;;;;;;15.70;2.93;;;;;;;;;;5094355;28;20484;-72
2022/05/12 10:49:59;;;;;;;13.53;2.30;;;;;;;;;;5094510;28;20540;-73
2022/05/12 10:52:29;;;;;;;14.60;2.63;;;;;;;;;;5094538;28;20452;-73
2022/05/12 10:55:08;;;;;;;16.10;2.73;;;;;;;;;;5087645;28;20515;-73
2022/05/12 10:57:40;;;;;;;15.60;2.80;;;;;;;;;;5088289;28;20464;-73
2022/05/12 11:00:14;;;;;;;13.93;2.60;;;;;;;;;;5087979;28;20450;-73
2022/05/12 11:02:43;;;;;;;14.33;2.70;;;;;;;;;;5088639;28;20486;-73
2022/05/12 11:05:12;;;;;;;15.00;3.10;;;;;;;;;;5094227;28;20454;-73
2022/05/12 11:07:42;;;;;;;17.33;3.30;;;;;;;;;;5094028;28;20477;-73
2022/05/12 11:10:16;;;;;;;13.87;2.30;;;;;;;;;;5094184;28;20449;-73
2022/05/12 11:12:46;;;;;;;13.00;2.77;;;;;;;;;;5094157;28;20454;-74
2022/05/12 11:15:16;;;;;;;13.30;2.70;;;;;;;;;;5094152;28;20463;-74
2022/05/12 11:17:44;;;;;;;14.60;3.10;;;;;;;;;;5093941;28;20458;-73
2022/05/12 11:20:19;;;;;;;13.20;2.80;;;;;;;;;;5093854;28;20825;-73
2022/05/12 11:22:48;;;;;;;12.93;2.20;;;;;;;;;;5093945;28;20456;-73
2022/05/12 11:25:19;;;;;;;14.30;2.93;;;;;;;;;;5093709;28;20457;-74
2022/05/12 11:27:52;;;;;;;13.40;2.43;;;;;;;;;;5093973;28;20485;-73
2022/05/12 11:30:28;;;;;;;12.93;2.20;;;;;;;;;;5093854;28;20528;-73
2022/05/12 11:33:02;;;;;;;14.33;3.00;;;;;;;;;;5093861;28;20893;-74
2022/05/12 11:35:33;;;;;;;15.70;2.93;;;;;;;;;;5093161;28;20450;-73
2022/05/12 11:38:01;;;;;;;15.27;2.50;;;;;;;;;;5093539;28;20464;-73
2022/05/12 11:40:47;;;;;;;13.53;2.37;;;;;;;;;;5093482;28;20987;-73
2022/05/12 11:46:23;;;;;;;16.47;2.70;;;;;;;;;;5093440;28;20468;-73
2022/05/12 11:48:55;;;;;;;13.53;2.37;;;;;;;;;;5092353;28;20449;-73
2022/05/12 11:51:27;;;;;;;14.77;2.43;;;;;;;;;;5093047;28;20456;-73
2022/05/12 11:53:57;;;;;;;14.73;2.80;;;;;;;;;;5093309;28;20456;-73
2022/05/12 11:56:43;;;;;;;12.40;2.63;;;;;;;;;;5093079;28;20866;-73
2022/05/12 11:59:21;;;;;;;13.60;2.40;;;;;;;;;;5089028;28;20442;-73
2022/05/12 12:01:53;;;;;;;15.67;2.83;;;;;;;;;;5093111;28;20449;-73
2022/05/12 12:04:36;;;;;;;13.87;2.63;;;;;;;;;;5093017;28;20946;-73
2022/05/12 12:07:04;;;;;;;16.47;2.43;;;;;;;;;;5092771;28;20909;-73
2022/05/12 12:09:46;;;;;;;14.10;2.80;;;;;;;;;;5092881;28;20459;-73
2022/05/12 12:12:30;;;;;;;14.20;2.50;;;;;;;;;;5090783;28;20489;-73
2022/05/12 12:14:59;;;;;;;13.60;2.40;;;;;;;;;;5092512;28;20462;-73
2022/05/12 12:17:34;;;;;;;13.50;2.37;;;;;;;;;;5092522;28;20532;-73
2022/05/12 12:20:06;;;;;;;15.03;2.77;;;;;;;;;;5092903;28;20453;-73
2022/05/12 12:22:41;;;;;;;16.77;2.90;;;;;;;;;;5092911;28;20454;-73
2022/05/12 12:25:27;;;;;;;14.53;2.63;;;;;;;;;;5092650;28;20438;-73
2022/05/12 12:28:13;;;;;;;18.00;2.83;;;;;;;;;;5086494;28;20481;-73
2022/05/12 12:31:05;;;;;;;13.07;2.60;;;;;;;;;;5092790;28;20445;-73
2022/05/12 12:33:42;;;;;;;13.30;2.33;;;;;;;;;;5092371;28;20467;-74
2022/05/12 12:36:30;;;;;;;20.63;3.90;;;;;;;;;;5092435;28;20477;-73
2022/05/12 12:39:05;;;;;;;12.40;2.20;;;;;;;;;;5092236;28;20954;-73
2022/05/12 12:41:37;;;;;;;15.03;2.70;;;;;;;;;;5092387;28;20618;-73
2022/05/12 12:44:09;;;;;;;13.90;2.53;;;;;;;;;;5085611;28;20446;-73
2022/05/12 12:46:38;;;;;;;13.40;2.70;;;;;;;;;;5085564;28;20488;-73
2022/05/12 12:49:10;;;;;;;15.23;3.20;;;;;;;;;;5092184;28;20953;-73
2022/05/12 12:51:39;;;;;;;14.70;2.87;;;;;;;;;;5092192;28;20533;-73
2022/05/12 12:57:06;;;;;;;14.63;2.50;;;;;;;;;;5056062;28;20517;-74
2022/05/12 12:59:35;;;;;;;14.53;2.80;;;;;;;;;;5092150;28;20454;-73
2022/05/12 13:02:04;;;;;;;13.20;2.47;;;;;;;;;;5091879;28;20458;-73
2022/05/12 13:04:34;;;;;;;16.10;3.37;;;;;;;;;;5085550;28;20446;-73
2022/05/12 13:07:03;;;;;;;13.27;2.47;;;;;;;;;;5091856;28;20488;-73
2022/05/12 13:09:31;;;;;;;13.63;2.70;;;;;;;;;;5091667;28;20949;-73
2022/05/12 13:12:09;;;;;;;15.77;2.67;;;;;;;;;;5092120;28;20444;-73
2022/05/12 13:14:38;;;;;;;14.83;2.47;;;;;;;;;;5092038;28;20448;-73
2022/05/12 13:17:06;;;;;;;18.00;3.10;;;;;;;;;;5091981;28;20458;-74
2022/05/12 13:19:39;;;;;;;13.93;2.87;;;;;;;;;;5091456;28;20464;-73
2022/05/12 13:22:06;;;;;;;13.70;2.73;;;;;;;;;;5092168;28;20441;-74
2022/05/12 13:24:35;;;;;;;13.07;2.60;;;;;;;;;;5092239;28;20879;-73
2022/05/12 13:27:04;;;;;;;13.90;3.00;;;;;;;;;;5091579;28;20491;-73
2022/05/12 13:29:34;;;;;;;13.60;2.70;;;;;;;;;;5091534;28;20438;-73
2022/05/12 13:32:06;;;;;;;13.27;2.47;;;;;;;;;;5091747;28;21022;-74
2022/05/12 13:34:34;;;;;;;14.33;2.90;;;;;;;;;;5092323;28;20906;-73
2022/05/12 13:37:16;;;;;;;14.30;3.33;;;;;;;;;;5091725;28;20484;-74
2022/05/12 13:39:49;;;;;;;13.50;3.17;;;;;;;;;;5086890;28;20477;-74
2022/05/12 13:42:18;;;;;;;15.30;2.80;;;;;;;;;;5091688;28;20946;-73
2022/05/12 13:44:50;;;;;;;14.73;2.90;;;;;;;;;;5091397;28;20446;-73
2022/05/12 13:47:22;;;;;;;13.20;3.00;;;;;;;;;;5091258;28;20485;-73
2022/05/12 13:49:51;;;;;;;13.27;2.67;;;;;;;;;;5091567;28;20522;-74
2022/05/12 13:52:23;;;;;;;16.27;2.47;;;;;;;;;;5091619;28;20499;-74
2022/05/12 13:55:08;;;;;;;14.53;3.03;;;;;;;;;;5091584;28;20453;-73
2022/05/12 13:57:37;;;;;;;13.13;2.70;;;;;;;;;;5091461;28;20476;-74
2022/05/12 14:00:18;;;;;;;13.50;2.80;;;;;;;;;;5091579;28;20484;-73
2022/05/12 14:02:47;;;;;;;13.63;2.60;;;;;;;;;;5091723;28;20445;-74
2022/05/12 14:05:17;;;;;;;13.90;3.10;;;;;;;;;;5091227;28;20442;-73
2022/05/12 14:08:01;;;;;;;14.90;3.17;;;;;;;;;;5091160;28;20525;-73
2022/05/12 14:10:30;;;;;;;17.70;2.90;;;;;;;;;;5091389;28;20455;-73
2022/05/12 14:21:28;;;;;;;14.40;2.87;;;;;;;;;;5078991;28;20478;-73
2022/05/12 14:23:57;;;;;;;14.50;2.50;;;;;;;;;;5095044;28;20449;-73
2022/05/12 14:26:25;;;;;;;13.80;2.90;;;;;;;;;;5094387;28;20499;-73
2022/05/12 14:28:52;;;;;;;14.03;2.63;;;;;;;;;;5088142;28;20474;-73
2022/05/12 14:31:21;;;;;;;13.50;2.70;;;;;;;;;;5094667;28;20542;-73
2022/05/12 14:33:50;;;;;;;13.83;3.10;;;;;;;;;;5094833;28;20451;-74
2022/05/12 14:36:17;;;;;;;13.50;3.20;;;;;;;;;;5094819;28;20477;-73
2022/05/12 14:38:46;;;;;;;13.23;2.53;;;;;;;;;;5094633;28;20457;-74
2022/05/12 14:41:15;;;;;;;14.07;2.60;;;;;;;;;;5094847;28;20456;-74
2022/05/12 14:43:43;;;;;;;16.20;2.50;;;;;;;;;;5094624;28;20495;-73
2022/05/12 14:46:10;;;;;;;15.73;2.83;;;;;;;;;;5094771;28;20464;-74
2022/05/12 14:48:40;;;;;;;13.27;2.60;;;;;;;;;;5094582;28;20473;-73
2022/05/12 14:51:08;;;;;;;15.80;2.80;;;;;;;;;;5094541;28;20442;-73
2022/05/12 14:53:36;;;;;;;13.30;2.97;;;;;;;;;;5087490;28;20464;-73
2022/05/12 14:56:05;;;;;;;13.40;2.80;;;;;;;;;;5094546;28;20461;-73
2022/05/12 14:58:34;;;;;;;19.47;3.33;;;;;;;;;;5094546;28;20453;-73
2022/05/12 15:01:04;;;;;;;14.10;2.70;;;;;;;;;;5094213;28;20457;-74
2022/05/12 15:03:32;;;;;;;14.57;2.83;;;;;;;;;;5094217;28;20465;-74
2022/05/12 15:06:00;;;;;;;14.77;2.50;;;;;;;;;;5094063;28;20961;-73
2022/05/12 15:08:28;;;;;;;15.50;2.97;;;;;;;;;;5094128;28;20481;-74
2022/05/12 15:10:55;;;;;;;14.10;2.40;;;;;;;;;;5094125;28;20794;-73
2022/05/12 15:13:24;;;;;;;30.23;3.00;;;;;;;;;;5094044;28;20456;-74
2022/05/12 15:15:54;;;;;;;16.80;3.00;;;;;;;;;;5094102;28;20536;-74
2022/05/12 15:18:22;;;;;;;16.47;2.80;;;;;;;;;;5093906;28;20521;-74
2022/05/12 15:20:49;;;;;;;21.13;2.93;;;;;;;;;;5093805;28;20437;-74
2022/05/12 15:23:17;;;;;;;22.63;3.00;;;;;;;;;;5093680;28;20463;-73
2022/05/12 15:25:46;;;;;;;13.77;2.87;;;;;;;;;;5093717;28;20472;-73
2022/05/12 15:28:19;;;;;;;13.20;2.80;;;;;;;;;;5093615;28;20861;-73
2022/05/12 15:30:46;;;;;;;17.40;3.27;;;;;;;;;;5093677;28;20458;-73
2022/05/12 15:33:15;;;;;;;14.60;2.90;;;;;;;;;;5093645;28;20970;-73
2022/05/12 15:35:43;;;;;;;13.23;2.70;;;;;;;;;;5093631;28;20485;-73
2022/05/12 15:38:10;;;;;;;13.03;2.67;;;;;;;;;;5093615;28;20493;-73
2022/05/12 15:40:37;;;;;;;12.93;3.03;;;;;;;;;;5093451;28;20458;-72
2022/05/12 15:43:06;;;;;;;14.53;2.80;;;;;;;;;;5093667;28;20445;-73
2022/05/12 15:45:34;;;;;;;13.63;2.60;;;;;;;;;;5086343;28;21092;-73
2022/05/12 15:48:01;;;;;;;19.60;2.97;;;;;;;;;;5093281;28;20491;-73
2022/05/12 15:50:32;;;;;;;14.13;2.50;;;;;;;;;;5093263;28;20816;-73
2022/05/12 15:53:00;;;;;;;13.33;2.67;;;;;;;;;;5093280;28;20481;-73
2022/05/12 15:55:28;;;;;;;12.87;2.40;;;;;;;;;;5093097;28;20464;-73
2022/05/12 15:57:55;;;;;;;14.43;2.97;;;;;;;;;;5093030;28;20460;-73
2022/05/12 16:00:24;;;;;;;13.93;3.63;;;;;;;;;;5093187;28;20455;-73
2022/05/12 16:02:51;;;;;;;14.47;3.03;;;;;;;;;;5093042;28;20975;-73
2022/05/12 16:05:19;;;;;;;13.53;2.90;;;;;;;;;;5091683;28;20481;-73
2022/05/12 16:07:48;;;;;;;14.73;2.90;;;;;;;;;;5092966;28;20534;-73
2022/05/12 16:10:16;;;;;;;13.20;2.50;;;;;;;;;;5092846;28;20456;-73
2022/05/12 16:12:48;;;;;;;14.87;2.93;;;;;;;;;;5092759;28;20538;-73
2022/05/12 16:15:18;;;;;;;13.77;2.23;;;;;;;;;;5092835;28;21006;-72
2022/05/12 16:17:47;;;;;;;13.53;2.70;;;;;;;;;;5092863;28;20916;-73
2022/05/12 16:20:15;;;;;;;18.33;2.77;;;;;;;;;;5092839;28;20509;-73
2022/05/12 16:22:42;;;;;;;12.90;2.57;;;;;;;;;;5092872;28;20457;-73
2022/05/12 16:25:12;;;;;;;13.50;2.70;;;;;;;;;;5092581;28;20447;-73
2022/05/12 16:27:41;;;;;;;16.07;3.13;;;;;;;;;;5092586;28;20494;-73
2022/05/12 16:30:11;;;;;;;14.50;2.87;;;;;;;;;;5092485;28;20446;-73
2022/05/12 16:32:39;;;;;;;14.90;3.00;;;;;;;;;;5092531;28;20451;-73
2022/05/12 16:35:07;;;;;;;15.50;3.30;;;;;;;;;;5091887;28;20452;-73
2022/05/12 16:37:35;;;;;;;13.43;2.53;;;;;;;;;;5092050;28;21025;-73
2022/05/12 16:40:03;;;;;;;14.90;2.90;;;;;;;;;;5092374;28;20459;-73
2022/05/12 16:42:32;;;;;;;14.40;3.30;;;;;;;;;;5092521;28;20456;-72
2022/05/12 16:44:59;;;;;;;18.40;2.93;;;;;;;;;;5092275;28;20536;-72
2022/05/12 16:47:27;;;;;;;15.47;3.37;;;;;;;;;;5092112;28;20868;-73
2022/05/12 16:49:54;;;;;;;14.40;3.10;;;;;;;;;;5092339;28;20450;-72
2022/05/12 16:52:23;;;;;;;13.90;2.97;;;;;;;;;;5092101;28;20450;-72
2022/05/12 16:54:52;;;;;;;13.60;2.83;;;;;;;;;;5092204;28;20446;-72
2022/05/12 16:57:20;;;;;;;14.30;2.63;;;;;;;;;;5091865;28;20452;-72
2022/05/12 16:59:50;;;;;;;15.63;2.37;;;;;;;;;;5092093;28;20441;-73
2022/05/12 17:02:18;;;;;;;13.57;3.00;;;;;;;;;;5085878;28;20483;-72
2022/05/12 17:04:46;;;;;;;12.73;2.43;;;;;;;;;;5091992;28;20458;-72
2022/05/12 17:07:13;;;;;;;16.27;3.30;;;;;;;;;;5092083;28;20458;-72
2022/05/12 17:09:42;;;;;;;15.03;2.77;;;;;;;;;;5092147;28;20447;-72
2022/05/12 17:12:10;;;;;;;14.83;2.90;;;;;;;;;;5091853;28;20446;-72
2022/05/12 17:14:38;;;;;;;14.30;3.07;;;;;;;;;;5092031;28;20808;-72
2022/05/12 17:17:07;;;;;;;14.50;2.50;;;;;;;;;;5091750;28;20453;-72
2022/05/12 17:19:35;;;;;;;13.87;2.80;;;;;;;;;;5091578;28;20454;-72
2022/05/12 17:22:02;;;;;;;14.00;2.80;;;;;;;;;;5092097;28;20438;-72
2022/05/12 17:24:30;;;;;;;14.07;2.70;;;;;;;;;;5091775;28;20452;-73
2022/05/12 17:26:58;;;;;;;14.20;2.60;;;;;;;;;;5091560;28;20495;-72
2022/05/12 17:29:32;;;;;;;14.37;3.00;;;;;;;;;;5091256;28;21034;-72
2022/05/12 17:32:00;;;;;;;13.23;2.50;;;;;;;;;;5091639;28;20440;-72
2022/05/12 17:34:29;;;;;;;16.67;3.20;;;;;;;;;;5091731;28;20449;-72
2022/05/12 17:36:56;;;;;;;15.37;3.50;;;;;;;;;;5091329;28;20488;-72
2022/05/12 17:39:24;;;;;;;16.00;3.30;;;;;;;;;;5091294;28;20469;-72
2022/05/12 17:41:51;;;;;;;17.87;3.00;;;;;;;;;;5091568;28;20540;-72
2022/05/12 17:44:20;;;;;;;14.53;2.70;;;;;;;;;;5091554;28;20450;-72
2022/05/12 17:46:47;;;;;;;16.07;3.10;;;;;;;;;;5091786;28;20449;-72
2022/05/12 17:49:15;;;;;;;19.93;3.03;;;;;;;;;;5095229;28;20481;-72
2022/05/12 17:51:43;;;;;;;14.17;3.07;;;;;;;;;;5095796;28;20447;-72
2022/05/12 17:54:12;;;;;;;14.50;3.50;;;;;;;;;;5095637;28;20449;-72